KEND/END METAR and TAF weather

Enter ICAO airport designator
Station Type Date Time Source
KEND METAR 2020/01/18 12:56 UTC NOAA

KEND 181256Z AUTO 32018G25KT 10SM CLR 01/M02 A3025 RMK AO2 PK WND 32033/08 SLP253 T00101022 $


Station Type Date Time Source
KEND Decoded METAR 2020/01/18 12:56 UTC NOAA

Vance Air Force Base / Enid, OK, United States (KEND) 36-20N 097-55W
Jan 18, 2020 - 07:56 AM EST / 2020.01.18 1256 UTC
Wind: from the NW (320 degrees) at 21 MPH (18 KT) gusting to 29 MPH (25 KT):0
Visibility: 10 mile(s):0
Sky conditions: clear
Temperature: 33.8 F (1.0 C)
Windchill: 21 F (-6 C):1
Dew Point: 28.0 F (-2.2 C)
Relative Humidity: 79%
Pressure (altimeter): 30.25 in. Hg (1024 hPa)
ob: KEND 181256Z AUTO 32018G25KT 10SM CLR 01/M02 A3025 RMK AO2 PK WND 32033/08 SLP253 T00101022
cycle: 13

Station Type Date Time Source
KEND TAF 2020/01/17 23:30 UTC NOAA

TAF TAF
AMD KEND 172327Z 1723/1824 18015G25KT 9999 NSW OVC008 QNH2998INS
BECMG 1803/1804 21015G25KT 9999 BKN030 QNH2995INS
BECMG 1806/1807 26015KT 9999 SKC QNH2998INS
BECMG 1812/1813 32015KT 9999 SKC QNH3020INS
BECMG 1814/1815 35015G25KT 9999 SKC QNH3025INS
BECMG 1821/1822 34012KT 9999 SKC QNH3042INS TX06/1802Z TN02/1812Z LAST NO
AMDS AFT 1723 NEXT 2110

Example: see airport list